sensor_id;sensor_type;location;lat;lon;timestamp;pressure;altitude;pressure_sealevel;temperature;humidity
8941;BME280;4505;43.406;23.226;2024-03-25T00:00:14;98702.19;;;7.27;100.00
8941;BME280;4505;43.406;23.226;2024-03-25T00:02:41;98695.06;;;7.28;100.00
8941;BME280;4505;43.406;23.226;2024-03-25T00:05:07;98691.72;;;7.32;100.00
8941;BME280;4505;43.406;23.226;2024-03-25T00:07:36;98696.09;;;7.39;100.00
8941;BME280;4505;43.406;23.226;2024-03-25T00:10:03;98684.66;;;7.50;100.00
8941;BME280;4505;43.406;23.226;2024-03-25T00:12:31;98688.56;;;7.47;100.00
8941;BME280;4505;43.406;23.226;2024-03-25T00:14:56;98687.44;;;7.43;100.00
8941;BME280;4505;43.406;23.226;2024-03-25T00:17:23;98682.78;;;7.50;100.00
8941;BME280;4505;43.406;23.226;2024-03-25T00:19:48;98675.81;;;7.44;100.00
8941;BME280;4505;43.406;23.226;2024-03-25T00:22:17;98668.97;;;7.60;100.00
8941;BME280;4505;43.406;23.226;2024-03-25T00:24:43;98660.25;;;7.59;100.00
8941;BME280;4505;43.406;23.226;2024-03-25T00:27:10;98664.00;;;7.63;100.00
8941;BME280;4505;43.406;23.226;2024-03-25T00:29:36;98660.59;;;7.35;100.00
8941;BME280;4505;43.406;23.226;2024-03-25T00:32:03;98651.72;;;7.41;100.00
8941;BME280;4505;43.406;23.226;2024-03-25T00:34:28;98642.78;;;7.42;100.00
8941;BME280;4505;43.406;23.226;2024-03-25T00:36:55;98648.22;;;7.52;100.00
8941;BME280;4505;43.406;23.226;2024-03-25T00:39:20;98647.59;;;7.45;100.00
8941;BME280;4505;43.406;23.226;2024-03-25T00:41:48;98642.53;;;7.43;100.00
8941;BME280;4505;43.406;23.226;2024-03-25T00:44:15;98638.38;;;7.47;100.00
8941;BME280;4505;43.406;23.226;2024-03-25T00:46:41;98634.88;;;7.42;100.00
8941;BME280;4505;43.406;23.226;2024-03-25T00:49:07;98628.06;;;7.46;100.00
8941;BME280;4505;43.406;23.226;2024-03-25T00:51:33;98628.19;;;7.39;100.00
8941;BME280;4505;43.406;23.226;2024-03-25T00:53:59;98640.63;;;7.39;100.00
8941;BME280;4505;43.406;23.226;2024-03-25T00:56:25;98640.06;;;7.37;100.00
8941;BME280;4505;43.406;23.226;2024-03-25T00:58:51;98638.75;;;7.39;100.00
8941;BME280;4505;43.406;23.226;2024-03-25T01:01:19;98631.03;;;7.49;100.00
8941;BME280;4505;43.406;23.226;2024-03-25T01:03:45;98630.78;;;7.51;100.00
8941;BME280;4505;43.406;23.226;2024-03-25T01:06:11;98621.56;;;7.53;100.00
8941;BME280;4505;43.406;23.226;2024-03-25T01:08:37;98631.03;;;7.66;100.00
8941;BME280;4505;43.406;23.226;2024-03-25T01:11:03;98638.31;;;7.59;100.00
8941;BME280;4505;43.406;23.226;2024-03-25T01:13:29;98631.34;;;7.53;100.00
8941;BME280;4505;43.406;23.226;2024-03-25T01:15:56;98638.63;;;7.62;100.00
8941;BME280;4505;43.406;23.226;2024-03-25T01:18:23;98635.75;;;7.64;100.00
8941;BME280;4505;43.406;23.226;2024-03-25T01:20:49;98635.09;;;7.73;100.00
8941;BME280;4505;43.406;23.226;2024-03-25T01:23:15;98638.06;;;7.77;100.00
8941;BME280;4505;43.406;23.226;2024-03-25T01:25:41;98642.41;;;7.83;100.00
8941;BME280;4505;43.406;23.226;2024-03-25T01:28:07;98640.47;;;7.78;100.00
8941;BME280;4505;43.406;23.226;2024-03-25T01:30:33;98633.81;;;7.76;100.00
8941;BME280;4505;43.406;23.226;2024-03-25T01:33:00;98627.84;;;7.80;100.00
8941;BME280;4505;43.406;23.226;2024-03-25T01:35:28;98634.47;;;7.83;100.00
8941;BME280;4505;43.406;23.226;2024-03-25T01:37:54;98626.63;;;7.88;100.00
8941;BME280;4505;43.406;23.226;2024-03-25T01:40:20;98624.53;;;7.90;100.00
8941;BME280;4505;43.406;23.226;2024-03-25T01:42:54;98635.41;;;7.93;100.00
8941;BME280;4505;43.406;23.226;2024-03-25T01:45:21;98628.38;;;7.99;100.00
8941;BME280;4505;43.406;23.226;2024-03-25T01:47:47;98635.97;;;7.95;100.00
8941;BME280;4505;43.406;23.226;2024-03-25T01:50:13;98633.47;;;8.05;100.00
8941;BME280;4505;43.406;23.226;2024-03-25T01:52:40;98642.75;;;8.08;100.00
8941;BME280;4505;43.406;23.226;2024-03-25T01:55:08;98639.50;;;8.01;100.00
8941;BME280;4505;43.406;23.226;2024-03-25T01:57:37;98647.75;;;8.04;100.00
8941;BME280;4505;43.406;23.226;2024-03-25T02:00:05;98647.19;;;8.02;100.00
8941;BME280;4505;43.406;23.226;2024-03-25T02:02:32;98640.06;;;8.03;100.00
8941;BME280;4505;43.406;23.226;2024-03-25T02:05:01;98657.28;;;8.05;100.00
8941;BME280;4505;43.406;23.226;2024-03-25T02:07:27;98647.34;;;8.12;100.00
8941;BME280;4505;43.406;23.226;2024-03-25T02:09:56;98645.00;;;8.16;100.00
8941;BME280;4505;43.406;23.226;2024-03-25T02:12:22;98643.47;;;8.20;100.00
8941;BME280;4505;43.406;23.226;2024-03-25T02:14:48;98635.41;;;8.10;100.00
8941;BME280;4505;43.406;23.226;2024-03-25T02:17:14;98640.38;;;8.23;100.00
8941;BME280;4505;43.406;23.226;2024-03-25T02:19:41;98641.50;;;8.27;100.00
8941;BME280;4505;43.406;23.226;2024-03-25T02:22:06;98648.63;;;8.26;100.00
8941;BME280;4505;43.406;23.226;2024-03-25T02:24:33;98654.63;;;8.22;100.00
8941;BME280;4505;43.406;23.226;2024-03-25T02:27:01;98647.94;;;8.19;100.00
8941;BME280;4505;43.406;23.226;2024-03-25T02:29:32;98649.66;;;8.25;100.00
8941;BME280;4505;43.406;23.226;2024-03-25T02:31:58;98660.63;;;8.34;100.00
8941;BME280;4505;43.406;23.226;2024-03-25T02:34:24;98650.28;;;8.32;100.00
8941;BME280;4505;43.406;23.226;2024-03-25T02:36:50;98646.13;;;8.36;100.00
8941;BME280;4505;43.406;23.226;2024-03-25T02:39:17;98648.53;;;8.38;100.00
8941;BME280;4505;43.406;23.226;2024-03-25T02:41:43;98659.81;;;8.33;100.00
8941;BME280;4505;43.406;23.226;2024-03-25T02:44:11;98653.25;;;8.36;100.00
8941;BME280;4505;43.406;23.226;2024-03-25T02:46:38;98645.81;;;8.33;100.00
8941;BME280;4505;43.406;23.226;2024-03-25T02:49:05;98639.84;;;8.42;100.00
8941;BME280;4505;43.406;23.226;2024-03-25T02:51:31;98650.44;;;8.42;100.00
8941;BME280;4505;43.406;23.226;2024-03-25T02:53:58;98647.97;;;8.36;100.00
8941;BME280;4505;43.406;23.226;2024-03-25T02:56:23;98664.88;;;8.35;100.00
8941;BME280;4505;43.406;23.226;2024-03-25T02:58:50;98666.97;;;8.33;100.00
8941;BME280;4505;43.406;23.226;2024-03-25T03:01:17;98670.59;;;8.27;100.00
8941;BME280;4505;43.406;23.226;2024-03-25T03:03:43;98686.47;;;8.27;100.00
8941;BME280;4505;43.406;23.226;2024-03-25T03:06:09;98686.66;;;8.25;100.00
8941;BME280;4505;43.406;23.226;2024-03-25T03:08:35;98689.78;;;8.22;100.00
8941;BME280;4505;43.406;23.226;2024-03-25T03:11:01;98679.53;;;8.26;100.00
8941;BME280;4505;43.406;23.226;2024-03-25T03:13:27;98681.06;;;8.22;100.00
8941;BME280;4505;43.406;23.226;2024-03-25T03:15:53;98673.63;;;8.19;100.00
8941;BME280;4505;43.406;23.226;2024-03-25T03:18:21;98672.19;;;8.28;100.00
8941;BME280;4505;43.406;23.226;2024-03-25T03:20:46;98687.06;;;8.34;100.00
8941;BME280;4505;43.406;23.226;2024-03-25T03:23:14;98699.47;;;8.33;100.00
8941;BME280;4505;43.406;23.226;2024-03-25T03:25:40;98698.72;;;8.33;100.00
8941;BME280;4505;43.406;23.226;2024-03-25T03:28:08;98697.66;;;8.34;100.00
8941;BME280;4505;43.406;23.226;2024-03-25T03:30:33;98703.50;;;8.36;100.00
8941;BME280;4505;43.406;23.226;2024-03-25T03:33:00;98690.91;;;8.43;100.00
8941;BME280;4505;43.406;23.226;2024-03-25T03:35:26;98700.69;;;8.42;100.00
8941;BME280;4505;43.406;23.226;2024-03-25T03:37:53;98691.22;;;8.46;100.00
8941;BME280;4505;43.406;23.226;2024-03-25T03:40:18;98694.25;;;8.55;100.00
8941;BME280;4505;43.406;23.226;2024-03-25T03:42:45;98693.00;;;8.62;100.00
8941;BME280;4505;43.406;23.226;2024-03-25T03:45:10;98703.16;;;8.49;100.00
8941;BME280;4505;43.406;23.226;2024-03-25T03:47:37;98701.28;;;8.49;100.00
8941;BME280;4505;43.406;23.226;2024-03-25T03:50:03;98714.09;;;8.57;100.00
8941;BME280;4505;43.406;23.226;2024-03-25T03:52:31;98711.09;;;8.49;100.00
8941;BME280;4505;43.406;23.226;2024-03-25T03:54:56;98707.47;;;8.55;100.00
8941;BME280;4505;43.406;23.226;2024-03-25T03:57:23;98712.19;;;8.53;100.00
8941;BME280;4505;43.406;23.226;2024-03-25T03:59:48;98713.25;;;8.52;100.00
8941;BME280;4505;43.406;23.226;2024-03-25T04:02:15;98720.09;;;8.69;100.00
8941;BME280;4505;43.406;23.226;2024-03-25T04:04:40;98731.69;;;8.85;100.00
8941;BME280;4505;43.406;23.226;2024-03-25T04:07:07;98740.84;;;9.42;100.00
8941;BME280;4505;43.406;23.226;2024-03-25T04:09:34;98738.19;;;8.94;100.00
8941;BME280;4505;43.406;23.226;2024-03-25T04:12:00;98736.91;;;8.58;100.00
8941;BME280;4505;43.406;23.226;2024-03-25T04:14:26;98744.50;;;8.55;100.00
8941;BME280;4505;43.406;23.226;2024-03-25T04:16:52;98739.31;;;8.82;100.00
8941;BME280;4505;43.406;23.226;2024-03-25T04:19:18;98746.00;;;8.67;100.00
8941;BME280;4505;43.406;23.226;2024-03-25T04:21:45;98749.31;;;8.58;100.00
8941;BME280;4505;43.406;23.226;2024-03-25T04:24:10;98757.41;;;8.51;100.00
8941;BME280;4505;43.406;23.226;2024-03-25T04:26:38;98768.50;;;8.48;100.00
8941;BME280;4505;43.406;23.226;2024-03-25T04:29:04;98757.91;;;8.48;100.00
8941;BME280;4505;43.406;23.226;2024-03-25T04:31:31;98756.44;;;8.57;100.00
8941;BME280;4505;43.406;23.226;2024-03-25T04:33:56;98760.47;;;8.60;100.00
8941;BME280;4505;43.406;23.226;2024-03-25T04:36:23;98773.06;;;8.53;100.00
8941;BME280;4505;43.406;23.226;2024-03-25T04:38:48;98774.09;;;8.52;100.00
8941;BME280;4505;43.406;23.226;2024-03-25T04:41:14;98777.25;;;8.49;100.00
8941;BME280;4505;43.406;23.226;2024-03-25T04:43:41;98779.31;;;8.47;100.00
8941;BME280;4505;43.406;23.226;2024-03-25T04:46:06;98776.75;;;8.52;100.00
8941;BME280;4505;43.406;23.226;2024-03-25T04:48:32;98790.31;;;8.94;100.00
8941;BME280;4505;43.406;23.226;2024-03-25T04:50:57;98790.31;;;8.94;100.00
8941;BME280;4505;43.406;23.226;2024-03-25T04:53:23;98789.81;;;8.75;100.00
8941;BME280;4505;43.406;23.226;2024-03-25T04:55:48;98792.63;;;8.90;100.00
8941;BME280;4505;43.406;23.226;2024-03-25T04:58:14;98797.31;;;8.83;100.00
8941;BME280;4505;43.406;23.226;2024-03-25T05:00:41;98794.59;;;8.78;100.00
8941;BME280;4505;43.406;23.226;2024-03-25T05:03:06;98799.50;;;8.53;100.00
8941;BME280;4505;43.406;23.226;2024-03-25T05:05:32;98807.59;;;8.46;100.00
8941;BME280;4505;43.406;23.226;2024-03-25T05:07:57;98800.63;;;8.40;100.00
8941;BME280;4505;43.406;23.226;2024-03-25T05:10:23;98811.88;;;8.31;100.00
8941;BME280;4505;43.406;23.226;2024-03-25T05:12:49;98809.78;;;8.33;100.00
8941;BME280;4505;43.406;23.226;2024-03-25T05:15:14;98807.59;;;8.46;100.00
8941;BME280;4505;43.406;23.226;2024-03-25T05:17:41;98804.19;;;8.46;100.00
8941;BME280;4505;43.406;23.226;2024-03-25T05:20:07;98823.72;;;8.45;100.00
8941;BME280;4505;43.406;23.226;2024-03-25T05:22:33;98814.28;;;8.49;100.00
8941;BME280;4505;43.406;23.226;2024-03-25T05:24:58;98818.59;;;8.55;100.00
8941;BME280;4505;43.406;23.226;2024-03-25T05:27:24;98821.16;;;8.66;100.00
8941;BME280;4505;43.406;23.226;2024-03-25T05:29:49;98823.28;;;9.24;100.00
8941;BME280;4505;43.406;23.226;2024-03-25T05:32:15;98827.88;;;8.91;100.00
8941;BME280;4505;43.406;23.226;2024-03-25T05:34:42;98828.19;;;8.94;100.00
8941;BME280;4505;43.406;23.226;2024-03-25T05:37:07;98838.03;;;8.99;100.00
8941;BME280;4505;43.406;23.226;2024-03-25T05:39:33;98838.06;;;9.20;100.00
8941;BME280;4505;43.406;23.226;2024-03-25T05:41:58;98839.38;;;9.01;100.00
8941;BME280;4505;43.406;23.226;2024-03-25T05:44:24;98851.47;;;8.76;100.00
8941;BME280;4505;43.406;23.226;2024-03-25T05:46:49;98841.03;;;8.69;100.00
8941;BME280;4505;43.406;23.226;2024-03-25T05:49:15;98843.34;;;8.82;100.00
8941;BME280;4505;43.406;23.226;2024-03-25T05:51:42;98845.50;;;9.02;100.00
8941;BME280;4505;43.406;23.226;2024-03-25T05:54:07;98853.84;;;8.77;100.00
8941;BME280;4505;43.406;23.226;2024-03-25T05:56:33;98853.22;;;8.87;100.00
8941;BME280;4505;43.406;23.226;2024-03-25T05:58:58;98857.66;;;8.81;100.00
8941;BME280;4505;43.406;23.226;2024-03-25T06:01:24;98860.03;;;8.99;100.00
8941;BME280;4505;43.406;23.226;2024-03-25T06:03:50;98875.84;;;8.94;100.00
8941;BME280;4505;43.406;23.226;2024-03-25T06:06:15;98880.66;;;8.97;100.00
8941;BME280;4505;43.406;23.226;2024-03-25T06:08:42;98877.28;;;9.02;100.00
8941;BME280;4505;43.406;23.226;2024-03-25T06:11:08;98882.25;;;8.98;100.00
8941;BME280;4505;43.406;23.226;2024-03-25T06:13:33;98883.56;;;9.17;100.00
8941;BME280;4505;43.406;23.226;2024-03-25T06:15:59;98885.34;;;9.50;100.00
8941;BME280;4505;43.406;23.226;2024-03-25T06:18:24;98887.25;;;9.54;100.00
8941;BME280;4505;43.406;23.226;2024-03-25T06:20:50;98895.16;;;9.71;100.00
8941;BME280;4505;43.406;23.226;2024-03-25T06:23:22;98893.09;;;9.78;100.00
8941;BME280;4505;43.406;23.226;2024-03-25T06:25:50;98908.19;;;9.34;100.00
8941;BME280;4505;43.406;23.226;2024-03-25T06:28:16;98911.13;;;9.38;100.00
8941;BME280;4505;43.406;23.226;2024-03-25T06:30:41;98896.16;;;9.27;100.00
8941;BME280;4505;43.406;23.226;2024-03-25T06:33:25;98904.22;;;9.15;100.00
8941;BME280;4505;43.406;23.226;2024-03-25T06:36:09;98900.66;;;9.26;100.00
8941;BME280;4505;43.406;23.226;2024-03-25T06:38:34;98912.22;;;9.20;100.00
8941;BME280;4505;43.406;23.226;2024-03-25T06:41:01;98908.44;;;9.33;100.00
8941;BME280;4505;43.406;23.226;2024-03-25T06:43:27;98914.53;;;9.33;100.00
8941;BME280;4505;43.406;23.226;2024-03-25T06:45:52;98911.88;;;9.33;100.00
8941;BME280;4505;43.406;23.226;2024-03-25T06:48:18;98908.97;;;9.13;100.00
8941;BME280;4505;43.406;23.226;2024-03-25T06:50:51;98925.94;;;9.17;100.00
8941;BME280;4505;43.406;23.226;2024-03-25T06:53:17;98920.31;;;9.30;100.00
8941;BME280;4505;43.406;23.226;2024-03-25T06:55:50;98920.31;;;9.30;100.00
8941;BME280;4505;43.406;23.226;2024-03-25T06:58:17;98917.41;;;9.48;100.00
8941;BME280;4505;43.406;23.226;2024-03-25T07:00:42;98930.84;;;9.63;100.00
8941;BME280;4505;43.406;23.226;2024-03-25T07:03:08;98963.69;;;9.62;100.00
8941;BME280;4505;43.406;23.226;2024-03-25T07:05:33;98937.84;;;10.13;100.00
8941;BME280;4505;43.406;23.226;2024-03-25T07:07:59;98924.19;;;10.04;100.00
8941;BME280;4505;43.406;23.226;2024-03-25T07:10:25;98930.13;;;10.11;100.00
8941;BME280;4505;43.406;23.226;2024-03-25T07:12:50;98927.84;;;10.20;100.00
8941;BME280;4505;43.406;23.226;2024-03-25T07:15:17;98928.19;;;10.55;100.00
8941;BME280;4505;43.406;23.226;2024-03-25T07:17:43;98924.81;;;10.38;100.00
8941;BME280;4505;43.406;23.226;2024-03-25T07:20:08;98949.25;;;10.66;100.00
8941;BME280;4505;43.406;23.226;2024-03-25T07:22:34;98924.63;;;10.71;100.00
8941;BME280;4505;43.406;23.226;2024-03-25T07:25:00;98944.75;;;10.67;100.00
8941;BME280;4505;43.406;23.226;2024-03-25T07:27:25;98939.53;;;10.77;100.00
8941;BME280;4505;43.406;23.226;2024-03-25T07:29:51;98938.44;;;10.73;100.00
8941;BME280;4505;43.406;23.226;2024-03-25T07:32:18;98951.38;;;10.64;100.00
8941;BME280;4505;43.406;23.226;2024-03-25T07:34:43;98935.97;;;10.93;100.00
8941;BME280;4505;43.406;23.226;2024-03-25T07:37:09;98943.78;;;11.09;100.00
8941;BME280;4505;43.406;23.226;2024-03-25T07:39:34;98957.75;;;11.31;100.00
8941;BME280;4505;43.406;23.226;2024-03-25T07:42:00;98952.44;;;10.95;100.00
8941;BME280;4505;43.406;23.226;2024-03-25T07:44:25;98935.63;;;11.16;100.00
8941;BME280;4505;43.406;23.226;2024-03-25T07:46:51;98957.88;;;11.10;100.00
8941;BME280;4505;43.406;23.226;2024-03-25T07:49:18;98979.91;;;10.52;100.00
8941;BME280;4505;43.406;23.226;2024-03-25T07:51:43;98979.13;;;10.52;100.00
8941;BME280;4505;43.406;23.226;2024-03-25T07:54:09;98938.88;;;10.91;100.00
8941;BME280;4505;43.406;23.226;2024-03-25T07:56:34;98960.59;;;11.20;100.00
8941;BME280;4505;43.406;23.226;2024-03-25T07:59:00;98961.44;;;10.94;100.00
8941;BME280;4505;43.406;23.226;2024-03-25T08:01:25;98972.69;;;10.74;100.00
8941;BME280;4505;43.406;23.226;2024-03-25T08:03:51;98955.97;;;11.05;100.00
8941;BME280;4505;43.406;23.226;2024-03-25T08:06:18;98967.38;;;11.01;100.00
8941;BME280;4505;43.406;23.226;2024-03-25T08:08:43;98962.63;;;11.44;100.00
8941;BME280;4505;43.406;23.226;2024-03-25T08:11:09;98959.75;;;11.51;100.00
8941;BME280;4505;43.406;23.226;2024-03-25T08:13:34;98978.91;;;11.16;100.00
8941;BME280;4505;43.406;23.226;2024-03-25T08:16:00;98946.88;;;11.33;100.00
8941;BME280;4505;43.406;23.226;2024-03-25T08:18:25;98976.41;;;11.73;100.00
8941;BME280;4505;43.406;23.226;2024-03-25T08:20:51;98989.03;;;10.88;100.00
8941;BME280;4505;43.406;23.226;2024-03-25T08:23:18;98975.38;;;11.42;100.00
8941;BME280;4505;43.406;23.226;2024-03-25T08:25:43;98976.47;;;11.10;100.00
8941;BME280;4505;43.406;23.226;2024-03-25T08:28:09;98990.00;;;11.40;100.00
8941;BME280;4505;43.406;23.226;2024-03-25T08:30:35;98983.91;;;11.44;100.00
8941;BME280;4505;43.406;23.226;2024-03-25T08:33:00;98994.69;;;12.16;100.00
8941;BME280;4505;43.406;23.226;2024-03-25T08:35:26;98991.41;;;11.52;100.00
8941;BME280;4505;43.406;23.226;2024-03-25T08:37:51;98995.44;;;11.60;100.00
8941;BME280;4505;43.406;23.226;2024-03-25T08:40:18;98977.16;;;11.69;100.00
8941;BME280;4505;43.406;23.226;2024-03-25T08:42:44;98975.78;;;12.13;92.40
8941;BME280;4505;43.406;23.226;2024-03-25T08:45:09;98973.06;;;11.98;93.45
8941;BME280;4505;43.406;23.226;2024-03-25T08:47:35;98982.94;;;12.02;91.84
8941;BME280;4505;43.406;23.226;2024-03-25T08:50:00;98993.63;;;12.17;92.19
8941;BME280;4505;43.406;23.226;2024-03-25T08:52:26;98985.94;;;11.69;91.06
8941;BME280;4505;43.406;23.226;2024-03-25T08:54:52;98997.03;;;11.61;87.80
8941;BME280;4505;43.406;23.226;2024-03-25T08:57:19;98996.88;;;11.78;89.96
8941;BME280;4505;43.406;23.226;2024-03-25T08:59:44;99017.72;;;11.54;83.98
8941;BME280;4505;43.406;23.226;2024-03-25T09:02:10;98985.44;;;11.77;81.57
8941;BME280;4505;43.406;23.226;2024-03-25T09:04:35;98987.81;;;11.69;82.17
8941;BME280;4505;43.406;23.226;2024-03-25T09:07:01;99002.41;;;11.66;82.19
8941;BME280;4505;43.406;23.226;2024-03-25T09:09:26;99010.56;;;11.96;79.39
8941;BME280;4505;43.406;23.226;2024-03-25T09:12:10;99029.00;;;12.13;74.20
8941;BME280;4505;43.406;23.226;2024-03-25T09:14:37;99013.31;;;12.16;75.31
8941;BME280;4505;43.406;23.226;2024-03-25T09:17:03;99032.75;;;11.70;71.40
8941;BME280;4505;43.406;23.226;2024-03-25T09:19:29;99011.50;;;12.32;72.60
8941;BME280;4505;43.406;23.226;2024-03-25T09:21:54;99026.41;;;11.76;77.30
8941;BME280;4505;43.406;23.226;2024-03-25T09:24:20;99026.19;;;12.39;78.28
8941;BME280;4505;43.406;23.226;2024-03-25T09:26:45;99045.81;;;12.23;77.83
8941;BME280;4505;43.406;23.226;2024-03-25T09:29:11;99089.22;;;11.82;75.17
8941;BME280;4505;43.406;23.226;2024-03-25T09:31:38;99078.84;;;11.81;77.61
8941;BME280;4505;43.406;23.226;2024-03-25T09:34:03;99057.09;;;11.94;76.62
8941;BME280;4505;43.406;23.226;2024-03-25T09:36:29;99067.41;;;11.85;76.40
8941;BME280;4505;43.406;23.226;2024-03-25T09:38:54;99041.00;;;12.15;72.56
8941;BME280;4505;43.406;23.226;2024-03-25T09:41:20;99045.44;;;12.05;76.04
8941;BME280;4505;43.406;23.226;2024-03-25T09:43:47;99036.75;;;12.19;75.19
8941;BME280;4505;43.406;23.226;2024-03-25T09:46:13;99045.91;;;12.48;71.84
8941;BME280;4505;43.406;23.226;2024-03-25T09:48:40;99072.88;;;12.05;73.68
8941;BME280;4505;43.406;23.226;2024-03-25T09:51:06;99040.53;;;12.28;70.49
8941;BME280;4505;43.406;23.226;2024-03-25T09:53:32;99063.88;;;12.16;69.52
8941;BME280;4505;43.406;23.226;2024-03-25T09:55:58;99035.91;;;12.90;68.79
8941;BME280;4505;43.406;23.226;2024-03-25T09:58:24;99032.84;;;12.42;67.50
8941;BME280;4505;43.406;23.226;2024-03-25T10:00:50;99060.19;;;12.22;66.06
8941;BME280;4505;43.406;23.226;2024-03-25T10:03:16;99052.41;;;11.69;62.52
8941;BME280;4505;43.406;23.226;2024-03-25T10:05:43;99059.84;;;12.09;60.43
8941;BME280;4505;43.406;23.226;2024-03-25T10:08:08;99052.88;;;12.03;60.05
8941;BME280;4505;43.406;23.226;2024-03-25T10:10:34;99060.53;;;11.52;62.51
8941;BME280;4505;43.406;23.226;2024-03-25T10:12:59;99027.56;;;12.52;64.83
8941;BME280;4505;43.406;23.226;2024-03-25T10:15:26;99023.75;;;12.28;57.29
8941;BME280;4505;43.406;23.226;2024-03-25T10:17:52;99002.00;;;12.46;51.98
8941;BME280;4505;43.406;23.226;2024-03-25T10:20:17;99032.09;;;12.56;55.27
8941;BME280;4505;43.406;23.226;2024-03-25T10:22:45;99049.69;;;12.52;53.53
8941;BME280;4505;43.406;23.226;2024-03-25T10:25:23;99050.13;;;12.34;49.45
8941;BME280;4505;43.406;23.226;2024-03-25T10:27:55;99048.75;;;12.27;52.19
8941;BME280;4505;43.406;23.226;2024-03-25T10:30:20;99027.31;;;12.53;52.49
8941;BME280;4505;43.406;23.226;2024-03-25T10:32:56;99007.09;;;12.67;53.40
8941;BME280;4505;43.406;23.226;2024-03-25T10:35:22;99046.13;;;12.32;55.61
8941;BME280;4505;43.406;23.226;2024-03-25T10:37:50;99038.78;;;12.69;57.67
8941;BME280;4505;43.406;23.226;2024-03-25T10:40:15;99026.06;;;12.86;57.08
8941;BME280;4505;43.406;23.226;2024-03-25T10:42:41;99027.38;;;12.93;58.78
8941;BME280;4505;43.406;23.226;2024-03-25T10:45:08;99052.44;;;12.21;58.91
8941;BME280;4505;43.406;23.226;2024-03-25T10:47:35;99026.53;;;12.63;57.62
8941;BME280;4505;43.406;23.226;2024-03-25T10:50:02;99024.19;;;13.77;52.42
8941;BME280;4505;43.406;23.226;2024-03-25T10:52:32;99031.97;;;13.58;50.06
8941;BME280;4505;43.406;23.226;2024-03-25T10:54:59;99034.91;;;13.07;53.76
8941;BME280;4505;43.406;23.226;2024-03-25T10:57:25;99063.41;;;13.01;53.85
8941;BME280;4505;43.406;23.226;2024-03-25T10:59:51;99055.19;;;13.33;51.59
8941;BME280;4505;43.406;23.226;2024-03-25T11:02:17;99035.41;;;13.69;51.24
8941;BME280;4505;43.406;23.226;2024-03-25T11:04:43;99042.06;;;13.76;51.13
8941;BME280;4505;43.406;23.226;2024-03-25T11:07:09;99037.28;;;13.03;56.73
8941;BME280;4505;43.406;23.226;2024-03-25T11:09:34;99054.03;;;13.99;51.64
8941;BME280;4505;43.406;23.226;2024-03-25T11:12:01;99069.03;;;13.15;55.58
8941;BME280;4505;43.406;23.226;2024-03-25T11:14:27;99041.56;;;13.24;57.92
8941;BME280;4505;43.406;23.226;2024-03-25T11:16:53;99040.13;;;12.81;58.08
8941;BME280;4505;43.406;23.226;2024-03-25T11:19:20;99027.69;;;13.17;50.35
8941;BME280;4505;43.406;23.226;2024-03-25T11:21:46;99028.75;;;13.06;48.86
8941;BME280;4505;43.406;23.226;2024-03-25T11:24:12;99037.84;;;13.10;47.61
8941;BME280;4505;43.406;23.226;2024-03-25T11:26:40;99045.75;;;12.90;46.20
8941;BME280;4505;43.406;23.226;2024-03-25T11:29:07;99029.31;;;13.33;46.32
8941;BME280;4505;43.406;23.226;2024-03-25T11:31:33;99023.69;;;13.50;46.65
8941;BME280;4505;43.406;23.226;2024-03-25T11:34:02;99053.84;;;13.50;47.75
8941;BME280;4505;43.406;23.226;2024-03-25T11:36:28;99035.44;;;13.14;49.85
8941;BME280;4505;43.406;23.226;2024-03-25T11:38:57;99068.38;;;12.77;49.63
8941;BME280;4505;43.406;23.226;2024-03-25T11:41:23;99045.84;;;12.33;49.57
8941;BME280;4505;43.406;23.226;2024-03-25T11:43:48;99032.09;;;12.56;49.20
8941;BME280;4505;43.406;23.226;2024-03-25T11:46:18;99041.50;;;12.84;49.85
8941;BME280;4505;43.406;23.226;2024-03-25T11:48:44;99047.69;;;13.30;49.78
8941;BME280;4505;43.406;23.226;2024-03-25T11:51:11;99039.88;;;12.88;48.36
8941;BME280;4505;43.406;23.226;2024-03-25T11:53:36;99043.34;;;12.68;47.82
8941;BME280;4505;43.406;23.226;2024-03-25T11:56:02;99031.97;;;13.58;46.05
8941;BME280;4505;43.406;23.226;2024-03-25T11:58:28;99030.84;;;13.84;45.65
8941;BME280;4505;43.406;23.226;2024-03-25T12:00:54;99026.38;;;13.65;46.83
8941;BME280;4505;43.406;23.226;2024-03-25T12:03:21;99027.97;;;13.46;48.55
8941;BME280;4505;43.406;23.226;2024-03-25T12:05:46;99033.78;;;12.92;46.83
8941;BME280;4505;43.406;23.226;2024-03-25T12:08:12;99034.56;;;12.78;45.42
8941;BME280;4505;43.406;23.226;2024-03-25T12:10:37;99024.75;;;13.54;45.07
8941;BME280;4505;43.406;23.226;2024-03-25T12:13:22;99026.38;;;13.60;46.32
8941;BME280;4505;43.406;23.226;2024-03-25T12:15:47;99018.91;;;13.32;48.36
8941;BME280;4505;43.406;23.226;2024-03-25T12:18:13;99026.38;;;13.30;47.28
8941;BME280;4505;43.406;23.226;2024-03-25T12:20:40;99041.56;;;13.09;47.48
8941;BME280;4505;43.406;23.226;2024-03-25T12:23:05;99021.31;;;13.43;45.89
8941;BME280;4505;43.406;23.226;2024-03-25T12:25:32;99038.56;;;13.91;46.67
8941;BME280;4505;43.406;23.226;2024-03-25T12:27:57;99023.38;;;13.76;47.38
8941;BME280;4505;43.406;23.226;2024-03-25T12:30:23;99038.09;;;13.64;46.14
8941;BME280;4505;43.406;23.226;2024-03-25T12:32:50;99049.56;;;13.14;48.03
8941;BME280;4505;43.406;23.226;2024-03-25T12:35:16;99042.81;;;12.81;49.11
8941;BME280;4505;43.406;23.226;2024-03-25T12:37:43;99047.16;;;13.08;50.78
8941;BME280;4505;43.406;23.226;2024-03-25T12:40:10;99038.06;;;12.98;51.82
8941;BME280;4505;43.406;23.226;2024-03-25T12:42:36;99045.81;;;13.70;50.44
8941;BME280;4505;43.406;23.226;2024-03-25T12:45:02;99078.38;;;13.62;50.91
8941;BME280;4505;43.406;23.226;2024-03-25T12:47:28;99054.13;;;13.49;49.12
8941;BME280;4505;43.406;23.226;2024-03-25T12:49:54;99035.97;;;13.31;44.85
8941;BME280;4505;43.406;23.226;2024-03-25T12:52:19;99036.75;;;13.06;44.59
8941;BME280;4505;43.406;23.226;2024-03-25T12:54:46;99028.72;;;12.96;44.68
8941;BME280;4505;43.406;23.226;2024-03-25T12:57:12;99023.47;;;13.26;44.38
8941;BME280;4505;43.406;23.226;2024-03-25T12:59:37;99048.25;;;13.12;44.53
8941;BME280;4505;43.406;23.226;2024-03-25T13:02:03;99028.50;;;13.38;44.13
8941;BME280;4505;43.406;23.226;2024-03-25T13:04:28;99052.22;;;13.14;44.52